Aeroporto :
LOGIN :

Iscrizione | Disclaimer

   EN    FR    IT 

 










Sommario :    VFR   VFR Marginale   IFR   IFR Intensivo   IFR Molto Intensivo
Visibilità : 
Base nubi : 
>= 8 km
>= 3000ft
5 / 8 km
1000 / 3000 ft
1500m / 5 km
500 / 1000 ft
800 / 1500m
200 / 500 ft
< 800m
< 200 ft
Simboli :   Temporali  Nebbia  Neve Forte  Precipitazioni Forti  Vento > 20 kt
SIGMETs :   Varie  Temporali  Ghiacco  Turbolenza  Onda orograficha  Ceneri Vulcaniche






- Altitudine del aeroporto : 313 ft
- Codice IATA : LEH


LFOH - Le Havre Octeville

ULTIMO METAR :
  • 291400Z AUTO 26029G43KT CAVOK 08/01 Q0993 TEMPO 25030G60KT 2000 SHRA BKN020CB

METARs OBSOLETI :
  • 291330Z AUTO 26026G38KT CAVOK 09/03 Q0992 TEMPO 25030G60KT 2000 SHRA BKN020CB
  • 291300Z AUTO 24022G33KT 9999 FEW037 SCT043 BKN054 08/03 Q0992 TEMPO 25030G60KT 2000 SHRA BKN020CB
  • 291230Z AUTO 27025KT 9999 ///TCU 09/01 Q0992 TEMPO 35030G60KT 2000 SHRA BKN020CB
  • 291200Z AUTO 26026G37KT CAVOK 09/02 Q0992 TEMPO 35030G60KT 2000 SHRA BKN020CB
  • 291130Z AUTO 27022KT 9999 FEW019/// SCT033/// BKN100/// ///TCU 08/05 Q0991 TEMPO 35030G60KT 2000 SHRA BKN020CB

TAF AMD TAF LFOH
Valido dal 29 a 12 ore il 01 a 12 ore UTC


291218Z 2912/0112 26025G40KT 9999 BKN020
TEMPO 2912/2919 2000 SHRA BKN020CB
PROB40
TEMPO 2912/2915 25030G60KT TSRAGS
TEMPO 2919/0102 4000 SHRA BKN025TCU
BECMG 0102/0105 20015G28KT
BECMG 0108/0110 18012KT RA OVC015
TEMPO 0110/0112 2000 RA BKN005 OVC015
ATIS : +33 2 35 54 64 93



MetMap, La meteo Aeronautica in un colpo d'occhio ! - Copyright ORBIFLY Dicembre 2007 - Disclaimer

ORBIFLY MET'MAP TEAM :

Programmazione e sviluppo : Alexandra Zaïnal
Concezione : Baudouin d'Aumeries
Aiuto per la programmazione : Marc-Olivier Méhu
Supporto tecnico e logistico : Manuel Goepfert
Aiuto per la traduzione : Arnaldo La Scala

Contatto : metmap@orbifly.com




FONTI E CREDITI :

   NOAA